Time;durP1;ratioP1;P1;durP2;ratioP2;P2;SDS_P1;SDS_P2;PMS_P1;PMS_P2;Temp;Humidity;BMP_temperature;BMP_pressure;BME280_temperature;BME280_humidity;BME280_pressure;Samples;Min_cycle;Max_cycle;Signal;HPM_P1;HPM_P2
2022/11/06 00:00:37;;;;;;;7.68;1.67;;;;;;;7.23;nan;101027.00;2074173;28;20299;-73
2022/11/06 00:01:39;;;;;;;5.30;2.05;;;;;;;7.19;nan;101022.16;2050345;28;20302;-73
2022/11/06 00:02:41;;;;;;;10.77;1.70;;;;;;;7.21;nan;101019.22;2050361;28;20294;-73
2022/11/06 00:03:43;;;;;;;6.05;1.67;;;;;;;7.19;nan;101019.47;2058621;28;20599;-73
2022/11/06 00:04:46;;;;;;;6.75;1.58;;;;;;;7.22;nan;101017.34;2058122;28;20305;-73
2022/11/06 00:07:09;;;;;;;5.00;1.27;;;;;;;7.21;nan;101016.53;2060191;28;20675;-73
2022/11/06 00:08:11;;;;;;;7.00;1.70;;;;;;;7.22;nan;101017.34;2050303;28;20616;-73
2022/11/06 00:09:16;;;;;;;7.25;1.70;;;;;;;7.20;nan;101018.41;2058435;28;20282;-74
2022/11/06 00:10:19;;;;;;;4.07;1.30;;;;;;;7.22;nan;101025.38;2066082;28;20289;-73
2022/11/06 00:11:24;;;;;;;6.43;1.50;;;;;;;7.22;nan;101014.69;2050157;28;20286;-73
2022/11/06 00:12:26;;;;;;;9.23;2.20;;;;;;;7.20;nan;101021.09;2058582;28;20615;-73
2022/11/06 00:13:31;;;;;;;7.30;1.90;;;;;;;7.19;nan;101011.47;2058124;28;20285;-73
2022/11/06 00:14:37;;;;;;;10.70;1.98;;;;;;;7.19;nan;101010.66;2065398;28;20281;-73
2022/11/06 00:15:42;;;;;;;6.63;1.95;;;;;;;7.17;nan;101020.78;2066107;28;20297;-73
2022/11/06 00:16:45;;;;;;;4.22;1.70;;;;;;;7.15;nan;101018.31;2049392;28;20356;-73
2022/11/06 00:17:50;;;;;;;6.80;1.90;;;;;;;7.16;nan;101019.97;2048911;28;20314;-73
2022/11/06 00:18:54;;;;;;;4.95;1.73;;;;;;;7.16;nan;101022.63;2050410;28;20904;-74
2022/11/06 00:20:00;;;;;;;8.00;1.77;;;;;;;7.18;nan;101025.06;2057584;28;20298;-74
2022/11/06 00:21:18;;;;;;;8.63;1.88;;;;;;;7.15;nan;101021.00;2063978;28;20812;-74
2022/11/06 00:22:20;;;;;;;5.40;1.75;;;;;;;7.14;nan;101030.09;2064970;28;20297;-74
2022/11/06 00:23:25;;;;;;;8.95;1.80;;;;;;;7.12;nan;101021.47;2057095;28;20805;-74
2022/11/06 00:24:28;;;;;;;10.90;1.90;;;;;;;7.15;nan;101026.34;2056947;28;20289;-74
2022/11/06 00:25:37;;;;;;;3.58;1.85;;;;;;;7.16;nan;101024.50;2056942;28;20306;-74
2022/11/06 00:26:40;;;;;;;9.05;2.00;;;;;;;7.14;nan;101023.94;2050750;28;20641;-74
2022/11/06 00:27:44;;;;;;;5.95;1.75;;;;;;;7.14;nan;101027.41;2049283;28;20305;-74
2022/11/06 00:28:50;;;;;;;4.82;1.75;;;;;;;7.14;nan;101024.75;2056568;28;20702;-74
2022/11/06 00:29:54;;;;;;;8.80;1.90;;;;;;;7.16;nan;101029.84;2057975;28;20305;-75
2022/11/06 00:31:08;;;;;;;4.63;1.55;;;;;;;7.15;nan;101026.34;2050245;28;20282;-74
2022/11/06 00:32:15;;;;;;;4.85;2.00;;;;;;;7.18;nan;101025.06;2051874;28;20290;-74
2022/11/06 00:33:18;;;;;;;7.30;1.70;;;;;;;7.19;nan;101021.34;2051134;28;20275;-75
2022/11/06 00:34:24;;;;;;;7.32;1.48;;;;;;;7.16;nan;101017.28;2065574;28;20777;-75
2022/11/06 00:35:27;;;;;;;6.13;1.67;;;;;;;7.14;nan;101019.38;2058039;28;20674;-74
2022/11/06 00:36:30;;;;;;;7.78;1.42;;;;;;;7.14;nan;101022.06;2054859;28;20298;-76
2022/11/06 00:37:33;;;;;;;7.85;1.85;;;;;;;7.11;nan;101019.88;2058241;28;20297;-76
2022/11/06 00:38:35;;;;;;;10.43;1.77;;;;;;;7.10;nan;101023.63;2050131;28;20820;-76
2022/11/06 00:39:40;;;;;;;7.47;1.95;;;;;;;7.12;nan;101020.69;2050328;28;20282;-75
2022/11/06 00:40:43;;;;;;;11.25;1.83;;;;;;;7.12;nan;101009.97;2058633;28;20301;-75
2022/11/06 00:41:45;;;;;;;7.75;1.65;;;;;;;7.12;nan;101015.34;2058198;28;20302;-74
2022/11/06 00:42:52;;;;;;;4.15;1.20;;;;;;;7.09;nan;101013.16;2058167;28;20635;-75
2022/11/06 00:43:57;;;;;;;4.35;1.48;;;;;;;7.07;nan;101013.41;2059110;28;20298;-75
2022/11/06 00:45:00;;;;;;;7.22;1.73;;;;;;;7.07;nan;101013.41;2065467;28;20293;-75
2022/11/06 00:46:03;;;;;;;4.70;1.58;;;;;;;7.06;nan;101006.44;2066166;28;20690;-75
2022/11/06 00:47:05;;;;;;;4.20;1.10;;;;;;;7.09;nan;101010.47;2066158;28;20285;-75
2022/11/06 00:48:13;;;;;;;3.45;1.55;;;;;;;7.10;nan;101012.91;2066158;28;20332;-75
2022/11/06 00:49:18;;;;;;;3.40;1.38;;;;;;;7.11;nan;101014.53;2065558;28;20296;-75
2022/11/06 00:50:26;;;;;;;3.78;1.48;;;;;;;7.08;nan;101015.00;2064973;28;20281;-75
2022/11/06 00:51:50;;;;;;;5.68;2.13;;;;;;;7.06;nan;101016.31;2055012;28;20374;-74
2022/11/06 00:52:53;;;;;;;8.82;1.95;;;;;;;7.06;nan;101014.47;2046582;28;20045;-74
2022/11/06 00:54:01;;;;;;;7.43;2.65;;;;;;;7.02;nan;101010.63;2057109;28;20820;-75
2022/11/06 00:55:05;;;;;;;7.50;1.70;;;;;;;6.99;nan;101011.13;2064753;28;20764;-74
2022/11/06 00:56:07;;;;;;;5.57;1.83;;;;;;;6.97;nan;101010.56;2048859;29;20643;-74
2022/11/06 00:57:10;;;;;;;7.50;3.15;;;;;;;6.97;nan;101013.25;2049460;28;20282;-74
2022/11/06 00:58:13;;;;;;;11.07;2.35;;;;;;;6.95;nan;101012.66;2072398;28;20284;-74
2022/11/06 00:59:19;;;;;;;3.58;1.42;;;;;;;6.94;nan;101017.22;2064765;28;20285;-74
2022/11/06 01:00:22;;;;;;;9.20;2.22;;;;;;;6.95;nan;101010.00;2057451;28;20286;-74
2022/11/06 01:01:30;;;;;;;5.50;1.63;;;;;;;6.97;nan;101010.56;2064821;28;20292;-74
2022/11/06 01:02:37;;;;;;;7.57;1.92;;;;;;;6.97;nan;101010.56;2066434;28;20293;-74
2022/11/06 01:03:41;;;;;;;11.02;2.60;;;;;;;7.00;nan;101010.09;2058021;28;20770;-75
2022/11/06 01:04:46;;;;;;;7.55;1.92;;;;;;;6.95;nan;101007.31;2058484;28;20288;-75
2022/11/06 01:05:52;;;;;;;8.68;1.35;;;;;;;6.94;nan;101011.06;2057811;28;20282;-75
2022/11/06 01:06:56;;;;;;;7.80;2.03;;;;;;;6.94;nan;101013.75;2057470;28;20298;-74
2022/11/06 01:07:58;;;;;;;5.95;1.50;;;;;;;6.95;nan;101012.66;2057801;28;20286;-74
2022/11/06 01:09:00;;;;;;;7.07;1.63;;;;;;;6.96;nan;101009.75;2042160;29;20295;-75
2022/11/06 01:10:02;;;;;;;11.35;1.60;;;;;;;6.97;nan;101013.25;2050079;28;20747;-75
2022/11/06 01:11:07;;;;;;;6.47;1.33;;;;;;;6.98;nan;101014.88;2066407;28;20285;-74
2022/11/06 01:12:11;;;;;;;7.38;1.52;;;;;;;6.97;nan;101013.25;2063412;28;20290;-74
2022/11/06 01:13:20;;;;;;;6.20;1.38;;;;;;;6.97;nan;101014.06;2066082;28;20288;-74
2022/11/06 01:14:24;;;;;;;2.65;1.25;;;;;;;6.98;nan;101022.88;2065367;28;20274;-74
2022/11/06 01:15:27;;;;;;;3.85;1.27;;;;;;;6.99;nan;101021.81;2057747;28;20039;-74
2022/11/06 01:16:29;;;;;;;5.68;1.15;;;;;;;7.00;nan;101012.75;2057855;28;20293;-74
2022/11/06 01:17:35;;;;;;;4.78;1.58;;;;;;;7.01;nan;101014.38;2065207;28;20293;-74
2022/11/06 01:18:37;;;;;;;8.95;2.28;;;;;;;7.02;nan;101010.63;2064607;28;20354;-74
2022/11/06 01:19:41;;;;;;;5.10;1.67;;;;;;;7.03;nan;101020.31;2064168;28;20305;-71
2022/11/06 01:20:43;;;;;;;9.15;1.45;;;;;;;7.05;nan;101018.19;2056463;28;20285;-71
2022/11/06 01:21:47;;;;;;;8.15;1.52;;;;;;;7.06;nan;101016.31;2055723;28;20294;-67
2022/11/06 01:22:50;;;;;;;5.18;1.65;;;;;;;7.05;nan;101015.50;2064433;28;20288;-71
2022/11/06 01:23:59;;;;;;;8.57;1.85;;;;;;;7.03;nan;101012.28;2063146;28;20293;-71
2022/11/06 01:25:01;;;;;;;6.85;1.80;;;;;;;7.01;nan;101013.56;2047429;28;20369;-71
2022/11/06 01:26:10;;;;;;;4.97;1.83;;;;;;;6.94;nan;101013.75;2055725;28;20286;-71
2022/11/06 01:27:11;;;;;;;7.45;2.00;;;;;;;6.91;nan;101014.22;2056169;28;20327;-71
2022/11/06 01:28:14;;;;;;;7.82;1.95;;;;;;;6.92;nan;101015.84;2063469;28;20364;-71
2022/11/06 01:29:19;;;;;;;7.32;1.65;;;;;;;6.90;nan;101012.59;2071278;28;20304;-71
2022/11/06 01:30:24;;;;;;;6.15;2.20;;;;;;;6.90;nan;101012.59;2055967;28;20668;-71
2022/11/06 01:31:29;;;;;;;9.88;2.05;;;;;;;6.88;nan;101017.38;2056935;28;20298;-71
2022/11/06 01:32:33;;;;;;;4.10;1.50;;;;;;;6.88;nan;101009.34;2064268;28;20300;-71
2022/11/06 01:33:38;;;;;;;7.93;1.85;;;;;;;6.89;nan;101016.31;2063946;28;20293;-72
2022/11/06 01:34:41;;;;;;;6.35;1.80;;;;;;;6.91;nan;101014.22;2056308;28;20290;-72
2022/11/06 01:35:47;;;;;;;5.03;1.77;;;;;;;6.90;nan;101013.41;2056430;28;20302;-72
2022/11/06 01:36:49;;;;;;;7.70;1.92;;;;;;;6.92;nan;101013.16;2037925;29;20771;-71
2022/11/06 01:37:53;;;;;;;9.85;1.88;;;;;;;6.92;nan;101005.13;2041335;28;20663;-72
2022/11/06 01:38:59;;;;;;;5.38;1.48;;;;;;;6.90;nan;101007.22;2056154;28;20294;-72
2022/11/06 01:40:02;;;;;;;7.43;1.98;;;;;;;6.88;nan;101001.34;2056787;28;20294;-72
2022/11/06 01:41:05;;;;;;;5.57;2.08;;;;;;;6.88;nan;101010.16;2048190;28;20301;-72
2022/11/06 01:42:11;;;;;;;8.00;1.80;;;;;;;6.87;nan;101007.72;2056278;28;20290;-71
2022/11/06 01:43:22;;;;;;;4.50;1.30;;;;;;;6.87;nan;101013.06;2072001;28;20704;-71
2022/11/06 01:44:32;;;;;;;7.65;1.77;;;;;;;6.86;nan;101019.47;2047373;28;20361;-72
2022/11/06 01:45:40;;;;;;;8.02;1.90;;;;;;;6.79;nan;101013.47;2051486;28;20573;-71
2022/11/06 01:46:44;;;;;;;5.63;1.58;;;;;;;6.80;nan;101023.91;2055341;28;20943;-71
2022/11/06 01:47:49;;;;;;;5.05;1.83;;;;;;;6.79;nan;101021.50;2063573;28;20292;-71
2022/11/06 01:49:11;;;;;;;8.95;1.95;;;;;;;6.79;nan;101021.50;2064460;28;20289;-72
2022/11/06 01:50:14;;;;;;;7.60;1.55;;;;;;;6.78;nan;101019.84;2063082;28;20297;-70
2022/11/06 01:51:22;;;;;;;6.22;1.88;;;;;;;6.76;nan;101022.78;2055525;28;20294;-71
2022/11/06 01:52:25;;;;;;;4.50;1.60;;;;;;;6.77;nan;101018.25;2054777;28;20726;-70
2022/11/06 01:53:29;;;;;;;12.32;4.25;;;;;;;6.75;nan;101015.84;2062636;28;20361;-70
2022/11/06 01:54:37;;;;;;;6.78;1.88;;;;;;;6.74;nan;101015.00;2063837;28;20285;-72
2022/11/06 01:55:45;;;;;;;11.30;2.80;;;;;;;6.74;nan;101016.88;2063501;28;20280;-71
2022/11/06 01:56:52;;;;;;;7.22;3.05;;;;;;;6.74;nan;101020.34;2055652;28;20444;-72
2022/11/06 01:57:56;;;;;;;7.78;2.17;;;;;;;6.74;nan;101014.19;2057119;28;20634;-72
2022/11/06 01:59:00;;;;;;;6.75;1.92;;;;;;;6.76;nan;101014.78;2063588;28;20289;-72
2022/11/06 02:00:05;;;;;;;9.25;2.13;;;;;;;6.78;nan;101014.50;2048710;28;20283;-72
2022/11/06 02:01:08;;;;;;;9.10;1.90;;;;;;;6.77;nan;101013.72;2048918;28;20294;-73
2022/11/06 02:02:12;;;;;;;7.60;2.00;;;;;;;6.77;nan;101012.91;2064480;28;20281;-73
2022/11/06 02:03:17;;;;;;;5.88;1.52;;;;;;;6.77;nan;101013.72;2057385;28;20782;-73
2022/11/06 02:04:33;;;;;;;7.85;1.60;;;;;;;6.74;nan;101015.00;2058129;28;20643;-72
2022/11/06 02:05:36;;;;;;;7.40;1.75;;;;;;;6.71;nan;101020.00;2065028;28;20281;-73
2022/11/06 02:06:38;;;;;;;3.88;1.55;;;;;;;6.68;nan;101020.50;2056602;28;20828;-72
2022/11/06 02:07:44;;;;;;;7.13;1.40;;;;;;;6.67;nan;101021.56;2065182;28;20405;-73
2022/11/06 02:08:47;;;;;;;4.40;1.48;;;;;;;6.65;nan;101024.47;2057379;28;20297;-73
2022/11/06 02:09:52;;;;;;;4.82;1.30;;;;;;;6.63;nan;101021.22;2049835;28;20302;-73
2022/11/06 02:10:55;;;;;;;3.47;1.40;;;;;;;6.61;nan;101017.97;2065680;28;20293;-72
2022/11/06 02:12:01;;;;;;;7.70;1.95;;;;;;;6.62;nan;101024.97;2057130;28;20294;-72
2022/11/06 02:13:19;;;;;;;10.05;1.92;;;;;;;6.61;nan;101026.00;2050772;28;20286;-73
2022/11/06 02:14:39;;;;;;;5.57;1.95;;;;;;;6.62;nan;101016.13;2059378;28;20282;-73
2022/11/06 02:15:46;;;;;;;3.42;1.40;;;;;;;6.63;nan;101013.22;2059517;28;20050;-72
2022/11/06 02:17:03;;;;;;;4.65;1.50;;;;;;;6.63;nan;101018.56;2066798;28;20042;-73
2022/11/06 02:18:20;;;;;;;6.53;1.80;;;;;;;6.64;nan;101012.16;2065344;28;20301;-73
2022/11/06 02:19:58;;;;;;;4.18;1.48;;;;;;;6.65;nan;101020.97;2059364;28;20277;-73
2022/11/06 02:21:23;;;;;;;2.72;1.42;;;;;;;6.63;nan;101018.56;2062135;28;20278;-73
2022/11/06 02:23:20;;;;;;;6.00;1.90;;;;;;;6.63;nan;101018.56;2065482;28;20298;-72
2022/11/06 02:24:24;;;;;;;9.88;1.42;;;;;;;6.63;nan;101013.22;2054711;28;20289;-72
2022/11/06 02:25:49;;;;;;;6.15;1.77;;;;;;;6.63;nan;101023.91;2056100;28;20294;-72
2022/11/06 02:26:56;;;;;;;4.03;1.40;;;;;;;6.60;nan;101010.22;2063058;28;20391;-72
2022/11/06 02:28:08;;;;;;;4.47;1.73;;;;;;;6.61;nan;101014.50;2056802;28;20289;-72
2022/11/06 02:29:18;;;;;;;5.78;1.45;;;;;;;6.61;nan;101011.84;2065542;28;20285;-72
2022/11/06 02:30:20;;;;;;;3.97;1.77;;;;;;;6.59;nan;101011.25;2056057;28;20297;-72
2022/11/06 02:31:25;;;;;;;5.35;2.33;;;;;;;6.59;nan;101006.75;2048179;28;20317;-71
2022/11/06 02:32:51;;;;;;;4.47;1.95;;;;;;;6.58;nan;101006.97;2072334;28;20288;-71
2022/11/06 02:33:58;;;;;;;4.55;1.55;;;;;;;6.56;nan;101007.22;2055838;28;20804;-71
2022/11/06 02:35:10;;;;;;;10.60;1.80;;;;;;;6.55;nan;101010.13;2057990;28;20293;-71
2022/11/06 02:36:21;;;;;;;4.68;1.40;;;;;;;6.53;nan;101012.25;2063773;28;20360;-72
2022/11/06 02:37:29;;;;;;;4.40;1.48;;;;;;;6.51;nan;101007.13;2063123;28;20300;-71
2022/11/06 02:38:38;;;;;;;2.80;1.67;;;;;;;6.48;nan;101004.94;2064735;28;20273;-71
2022/11/06 02:39:46;;;;;;;3.85;1.67;;;;;;;6.49;nan;101001.19;2064031;28;21123;-71
2022/11/06 02:40:55;;;;;;;6.22;1.50;;;;;;;6.48;nan;101002.25;2048678;28;20301;-71
2022/11/06 02:42:02;;;;;;;4.07;1.35;;;;;;;6.46;nan;101007.03;2050311;28;20377;-71
2022/11/06 02:43:06;;;;;;;7.18;1.73;;;;;;;6.46;nan;101007.03;2056800;28;20035;-71
2022/11/06 02:44:19;;;;;;;3.78;1.60;;;;;;;6.46;nan;101004.34;2056416;28;20278;-71
2022/11/06 02:45:25;;;;;;;5.32;1.60;;;;;;;6.45;nan;101011.56;2064336;28;20297;-71
2022/11/06 02:46:38;;;;;;;3.80;1.35;;;;;;;6.44;nan;101012.63;2055922;28;20286;-71
2022/11/06 02:47:44;;;;;;;5.60;1.45;;;;;;;6.43;nan;101004.81;2046534;28;20287;-71
2022/11/06 02:49:14;;;;;;;5.60;1.67;;;;;;;6.41;nan;101009.63;2042160;28;20298;-71
2022/11/06 02:50:34;;;;;;;5.28;1.60;;;;;;;6.39;nan;101009.84;2050806;28;20305;-71
2022/11/06 02:51:49;;;;;;;2.63;1.35;;;;;;;6.39;nan;101017.03;2054609;28;20281;-70
2022/11/06 02:53:10;;;;;;;3.28;1.73;;;;;;;6.38;nan;101013.56;2057129;28;20306;-71
2022/11/06 02:54:13;;;;;;;6.20;1.35;;;;;;;6.40;nan;101010.66;2054250;28;20657;-71
2022/11/06 02:55:42;;;;;;;6.25;1.45;;;;;;;6.39;nan;101011.72;2048890;28;20781;-71
2022/11/06 02:56:47;;;;;;;4.72;1.80;;;;;;;6.34;nan;101011.63;2061297;28;20300;-71
2022/11/06 02:57:53;;;;;;;6.75;1.83;;;;;;;6.30;nan;101011.28;2063908;28;20357;-71
2022/11/06 02:59:02;;;;;;;4.97;1.92;;;;;;;6.26;nan;101005.59;2064014;28;20281;-71
2022/11/06 03:00:12;;;;;;;4.07;1.90;;;;;;;6.23;nan;101007.94;2055781;28;20290;-71
2022/11/06 03:01:27;;;;;;;6.72;1.35;;;;;;;6.22;nan;101004.47;2041940;28;20291;-71
2022/11/06 03:02:44;;;;;;;4.20;1.55;;;;;;;6.19;nan;101002.28;2053451;28;20035;-71
2022/11/06 03:03:54;;;;;;;6.32;2.03;;;;;;;6.21;nan;101005.53;2057832;28;20290;-71
2022/11/06 03:05:43;;;;;;;3.67;1.63;;;;;;;6.24;nan;100999.72;2049925;28;20298;-72
2022/11/06 03:06:54;;;;;;;3.72;1.70;;;;;;;6.26;nan;101005.59;2068733;28;20115;-71
2022/11/06 03:08:23;;;;;;;4.90;1.70;;;;;;;6.22;nan;100999.13;2062825;28;20038;-72
2022/11/06 03:09:33;;;;;;;5.10;1.73;;;;;;;6.22;nan;100996.47;2060598;28;20292;-72
2022/11/06 03:10:45;;;;;;;8.73;2.00;;;;;;;6.23;nan;101003.41;2059379;28;20674;-72
2022/11/06 03:11:56;;;;;;;5.32;1.77;;;;;;;6.22;nan;100991.13;2064933;28;20058;-72
2022/11/06 03:13:31;;;;;;;4.03;1.80;;;;;;;6.22;nan;100995.66;2060442;28;20294;-72
2022/11/06 03:14:45;;;;;;;6.55;2.05;;;;;;;6.20;nan;100997.75;2069987;28;20637;-73
2022/11/06 03:16:05;;;;;;;3.15;1.90;;;;;;;6.21;nan;101005.53;2065635;28;20710;-73
2022/11/06 03:17:46;;;;;;;8.68;2.22;;;;;;;6.21;nan;101000.19;2070833;28;20289;-73
2022/11/06 03:19:08;;;;;;;5.47;2.10;;;;;;;6.21;nan;101002.84;2065445;28;20297;-73
2022/11/06 03:20:26;;;;;;;5.65;1.98;;;;;;;6.22;nan;101004.47;2053284;28;20290;-72
2022/11/06 03:22:15;;;;;;;11.35;2.10;;;;;;;6.21;nan;100994.00;2065456;28;20282;-73
2022/11/06 03:23:23;;;;;;;6.38;2.10;;;;;;;6.22;nan;101001.78;2064248;28;20637;-73
2022/11/06 03:24:49;;;;;;;4.82;1.40;;;;;;;6.19;nan;101001.47;2051415;28;20046;-72
2022/11/06 03:25:58;;;;;;;5.88;1.98;;;;;;;6.15;nan;101000.34;2057080;28;20289;-72
2022/11/06 03:27:09;;;;;;;8.10;1.67;;;;;;;6.07;nan;100996.16;2050405;28;20294;-72
2022/11/06 03:28:35;;;;;;;4.70;1.80;;;;;;;6.05;nan;101000.91;2051683;28;20297;-72
2022/11/06 03:29:48;;;;;;;3.70;1.67;;;;;;;6.05;nan;101000.91;2055622;28;20292;-72
2022/11/06 03:30:54;;;;;;;6.68;2.13;;;;;;;6.04;nan;101001.97;2057330;28;20650;-73
2022/11/06 03:32:14;;;;;;;6.90;1.60;;;;;;;6.03;nan;101001.16;2058188;28;20289;-72
2022/11/06 03:33:25;;;;;;;4.35;1.90;;;;;;;6.02;nan;100996.06;2065231;28;20297;-72
2022/11/06 03:34:37;;;;;;;5.25;1.92;;;;;;;6.00;nan;100998.97;2065337;28;20774;-73
2022/11/06 03:35:55;;;;;;;8.13;2.00;;;;;;;5.98;nan;101001.06;2065550;28;20273;-73
2022/11/06 03:37:10;;;;;;;5.70;2.00;;;;;;;5.97;nan;100995.97;2059752;28;20286;-73
2022/11/06 03:38:23;;;;;;;5.28;1.70;;;;;;;5.98;nan;101002.91;2056259;28;20754;-74
2022/11/06 03:39:48;;;;;;;5.68;2.17;;;;;;;6.00;nan;100998.97;2051056;28;20822;-73
2022/11/06 03:41:01;;;;;;;9.95;1.63;;;;;;;5.97;nan;101003.97;2055817;28;20294;-73
2022/11/06 03:42:10;;;;;;;5.53;1.55;;;;;;;5.96;nan;100999.69;2044121;29;20284;-73
2022/11/06 03:43:15;;;;;;;6.78;2.08;;;;;;;5.94;nan;101007.13;2045878;28;20403;-73
2022/11/06 03:44:23;;;;;;;5.95;1.90;;;;;;;5.96;nan;101005.03;2050764;28;20035;-73
2022/11/06 03:45:30;;;;;;;6.63;2.10;;;;;;;5.96;nan;101007.72;2044260;28;20279;-73
2022/11/06 03:46:42;;;;;;;7.65;2.03;;;;;;;5.98;nan;101005.59;2059239;28;20308;-72
2022/11/06 03:47:58;;;;;;;6.82;1.80;;;;;;;5.98;nan;101005.59;2065351;28;20297;-73
2022/11/06 03:49:06;;;;;;;4.43;1.77;;;;;;;5.98;nan;101002.91;2065505;28;20274;-72
2022/11/06 03:50:08;;;;;;;7.55;1.77;;;;;;;5.98;nan;101010.94;2057427;28;20328;-72
2022/11/06 03:51:33;;;;;;;6.32;2.15;;;;;;;5.96;nan;101013.03;2049591;28;20314;-72
2022/11/06 03:52:44;;;;;;;6.47;1.92;;;;;;;5.96;nan;101010.38;2059142;28;20273;-72
2022/11/06 03:53:54;;;;;;;6.82;1.67;;;;;;;5.95;nan;101008.72;2050861;28;20286;-72
2022/11/06 03:55:26;;;;;;;6.22;2.00;;;;;;;5.98;nan;101010.94;2059007;28;20293;-72
2022/11/06 03:56:46;;;;;;;3.45;1.92;;;;;;;5.98;nan;101006.41;2064715;28;20293;-73
2022/11/06 03:57:57;;;;;;;3.63;1.80;;;;;;;5.98;nan;101010.94;2059484;28;20292;-74
2022/11/06 03:59:03;;;;;;;7.32;1.90;;;;;;;5.98;nan;101013.59;2065408;28;20864;-74
2022/11/06 04:00:08;;;;;;;4.45;1.80;;;;;;;5.98;nan;101008.25;2065875;28;20288;-73
2022/11/06 04:01:27;;;;;;;8.25;1.70;;;;;;;5.97;nan;101006.66;2057236;28;20305;-72
2022/11/06 04:02:30;;;;;;;;;;;;;;;5.98;nan;101006.41;2053131;28;20298;-72
2022/11/06 04:03:38;;;;;;;4.63;1.73;;;;;;;6.00;nan;101008.84;2057393;28;19925;-72
2022/11/06 04:04:50;;;;;;;3.45;1.77;;;;;;;6.01;nan;101005.13;2058140;28;20777;-72
2022/11/06 04:06:39;;;;;;;6.07;1.70;;;;;;;6.01;nan;101003.25;2050417;28;20295;-72
2022/11/06 04:13:56;;;;;;;4.47;1.45;;;;;;;6.04;nan;101005.44;2032629;29;20292;-72
2022/11/06 04:14:56;;;;;;;7.85;2.00;;;;;;;6.07;nan;101000.69;2049017;28;20308;-73
2022/11/06 04:16:03;;;;;;;4.18;1.90;;;;;;;6.05;nan;101003.59;2051456;28;20298;-73
2022/11/06 04:17:13;;;;;;;4.85;2.03;;;;;;;6.06;nan;100994.56;2066346;28;20297;-72
2022/11/06 04:18:19;;;;;;;7.70;2.40;;;;;;;6.06;nan;100991.06;2066173;28;20034;-73
2022/11/06 04:19:22;;;;;;;8.20;1.77;;;;;;;6.05;nan;101000.91;2051031;28;20283;-73
2022/11/06 04:22:08;;;;;;;6.38;1.95;;;;;;;6.06;nan;100999.88;2057477;28;20799;-73
2022/11/06 04:23:33;;;;;;;7.25;2.15;;;;;;;6.06;nan;100994.56;2059153;28;20058;-73
2022/11/06 04:26:36;;;;;;;5.45;2.13;;;;;;;6.06;nan;100991.88;2060208;28;20285;-73
2022/11/06 04:27:56;;;;;;;5.75;2.00;;;;;;;6.05;nan;100992.91;2060646;28;20313;-73
2022/11/06 04:29:33;;;;;;;6.32;2.08;;;;;;;6.05;nan;100990.25;2060660;28;20369;-72
2022/11/06 04:30:47;;;;;;;5.85;2.17;;;;;;;6.07;nan;101003.38;2062711;28;20297;-72
2022/11/06 04:32:10;;;;;;;6.00;1.83;;;;;;;6.06;nan;100986.53;2065734;28;20293;-73
2022/11/06 04:33:27;;;;;;;4.78;2.47;;;;;;;6.06;nan;100991.88;2061206;28;20793;-74
2022/11/06 04:34:56;;;;;;;5.50;1.88;;;;;;;6.07;nan;100988.16;2058062;28;20298;-73
2022/11/06 04:36:02;;;;;;;13.07;2.05;;;;;;;6.05;nan;100990.25;2056368;28;20286;-73
2022/11/06 04:37:03;;;;;;;7.63;2.40;;;;;;;6.05;nan;100984.91;2057458;28;20839;-72
2022/11/06 04:38:13;;;;;;;5.95;1.92;;;;;;;6.06;nan;100988.41;2058498;28;20293;-71
2022/11/06 04:39:14;;;;;;;;;;;;;;;6.06;nan;100986.53;2059586;28;20293;-71
2022/11/06 04:40:51;;;;;;;6.90;1.83;;;;;;;6.07;nan;100988.16;2065865;28;20305;-72
2022/11/06 04:42:07;;;;;;;12.35;2.50;;;;;;;6.08;nan;100991.63;2066217;28;20792;-73
2022/11/06 04:43:22;;;;;;;6.82;2.45;;;;;;;6.06;nan;100989.22;2060209;28;20286;-73
2022/11/06 04:44:33;;;;;;;6.13;2.30;;;;;;;6.04;nan;100991.28;2061632;28;20362;-74
2022/11/06 04:45:40;;;;;;;5.50;2.45;;;;;;;6.04;nan;100999.31;2051312;28;20338;-74
2022/11/06 04:47:05;;;;;;;8.75;2.17;;;;;;;6.04;nan;100992.09;2051398;28;20298;-73
2022/11/06 04:48:09;;;;;;;5.85;2.35;;;;;;;6.05;nan;100998.25;2069172;28;20269;-73
2022/11/06 04:49:14;;;;;;;7.72;2.35;;;;;;;6.04;nan;100988.63;2065784;28;20805;-72
2022/11/06 04:50:19;;;;;;;5.45;2.35;;;;;;;6.02;nan;100988.03;2058920;28;20282;-72
2022/11/06 04:51:32;;;;;;;5.20;2.40;;;;;;;5.96;nan;100989.81;2073926;28;20288;-72
2022/11/06 04:52:39;;;;;;;11.25;2.53;;;;;;;5.91;nan;100992.34;2057530;28;20298;-73
2022/11/06 04:53:44;;;;;;;5.35;2.55;;;;;;;5.92;nan;100990.50;2042415;28;20383;-72
2022/11/06 04:54:50;;;;;;;6.35;2.15;;;;;;;5.92;nan;100990.50;2057060;28;20306;-73
2022/11/06 04:55:55;;;;;;;9.38;2.50;;;;;;;5.89;nan;100985.63;2057237;28;20290;-73
2022/11/06 04:56:59;;;;;;;8.57;2.65;;;;;;;5.88;nan;100987.50;2049672;28;20291;-73
2022/11/06 04:58:02;;;;;;;6.50;2.20;;;;;;;5.88;nan;100986.69;2048304;28;20306;-72
2022/11/06 04:59:05;;;;;;;4.45;2.30;;;;;;;5.87;nan;100988.53;2056361;28;20289;-72
2022/11/06 05:00:13;;;;;;;4.10;1.83;;;;;;;5.88;nan;100992.03;2064572;28;20289;-71
2022/11/06 05:01:20;;;;;;;6.90;2.65;;;;;;;5.88;nan;100990.16;2065044;28;20788;-70
2022/11/06 05:02:23;;;;;;;7.60;2.42;;;;;;;5.88;nan;100989.34;2064155;28;20285;-71
2022/11/06 05:03:26;;;;;;;6.55;2.67;;;;;;;5.86;nan;100988.75;2048145;28;20298;-70
2022/11/06 05:04:31;;;;;;;5.30;2.55;;;;;;;5.86;nan;100988.75;2042295;28;20311;-71
2022/11/06 05:05:34;;;;;;;8.85;3.22;;;;;;;5.88;nan;100989.34;2049807;28;20294;-70
2022/11/06 05:06:40;;;;;;;7.40;2.22;;;;;;;5.88;nan;100984.81;2049162;28;20279;-70
2022/11/06 05:07:43;;;;;;;4.43;2.40;;;;;;;5.88;nan;100992.03;2063955;28;20285;-70
2022/11/06 05:08:48;;;;;;;4.78;2.72;;;;;;;5.89;nan;100985.63;2057504;28;20290;-71
2022/11/06 05:09:52;;;;;;;9.45;2.58;;;;;;;5.89;nan;100991.78;2048739;28;20295;-71
2022/11/06 05:10:55;;;;;;;7.03;2.67;;;;;;;5.89;nan;100986.44;2061580;28;20308;-71
2022/11/06 05:11:58;;;;;;;7.97;2.63;;;;;;;5.91;nan;100995.03;2071249;28;20297;-71
2022/11/06 05:13:00;;;;;;;6.63;2.67;;;;;;;5.90;nan;100987.25;2063615;28;20776;-72
2022/11/06 05:14:03;;;;;;;8.95;2.92;;;;;;;5.90;nan;100987.25;2063316;28;20293;-72
2022/11/06 05:15:09;;;;;;;5.47;2.50;;;;;;;5.90;nan;100995.28;2063867;28;20293;-72
2022/11/06 05:16:12;;;;;;;6.03;2.30;;;;;;;5.91;nan;100997.69;2072191;28;20292;-71
2022/11/06 05:17:14;;;;;;;4.57;2.33;;;;;;;5.90;nan;100992.59;2063325;28;20293;-71
2022/11/06 05:18:17;;;;;;;9.85;3.28;;;;;;;5.89;nan;100999.78;2055621;28;20313;-71
2022/11/06 05:19:20;;;;;;;10.00;2.55;;;;;;;5.85;nan;100990.63;2063510;28;21070;-69
2022/11/06 05:20:27;;;;;;;7.28;2.45;;;;;;;5.84;nan;100999.69;2063865;28;20305;-71
2022/11/06 05:22:56;;;;;;;5.70;2.50;;;;;;;5.83;nan;100998.03;2065512;28;20277;-71
2022/11/06 05:23:58;;;;;;;11.63;2.20;;;;;;;5.81;nan;100995.63;2067980;28;20300;-72
2022/11/06 05:25:04;;;;;;;4.50;2.70;;;;;;;5.80;nan;100996.69;2071572;28;20776;-71
2022/11/06 05:26:07;;;;;;;8.60;2.60;;;;;;;5.79;nan;101003.06;2063502;28;20639;-72
2022/11/06 05:27:14;;;;;;;6.63;2.72;;;;;;;5.77;nan;100999.03;2061779;28;20725;-71
2022/11/06 05:28:16;;;;;;;7.88;2.78;;;;;;;5.77;nan;101001.69;2069752;28;20862;-72
2022/11/06 05:29:23;;;;;;;5.43;2.97;;;;;;;5.76;nan;101002.72;2062861;28;20301;-72
2022/11/06 05:30:30;;;;;;;5.88;2.63;;;;;;;5.75;nan;101001.91;2064007;28;20289;-71
2022/11/06 05:31:36;;;;;;;7.82;2.80;;;;;;;5.76;nan;101005.38;2070493;28;20862;-72
2022/11/06 05:32:41;;;;;;;6.18;2.60;;;;;;;5.74;nan;101005.63;2062615;28;20285;-72
2022/11/06 05:33:44;;;;;;;7.78;2.85;;;;;;;5.71;nan;101000.75;2055196;28;20298;-71
2022/11/06 05:34:50;;;;;;;9.25;3.28;;;;;;;5.71;nan;101003.44;2063139;28;20296;-72
2022/11/06 05:35:52;;;;;;;6.18;2.83;;;;;;;5.70;nan;101004.47;2070922;28;20756;-72
2022/11/06 05:36:56;;;;;;;6.45;2.80;;;;;;;5.69;nan;101002.84;2071133;28;20285;-72
2022/11/06 05:37:59;;;;;;;5.30;3.00;;;;;;;5.70;nan;101009.78;2047045;28;20315;-72
2022/11/06 05:39:03;;;;;;;6.85;2.97;;;;;;;5.67;nan;101004.94;2049121;28;21695;-72
2022/11/06 05:40:08;;;;;;;8.10;3.45;;;;;;;5.66;nan;100997.97;2063250;28;20781;-72
2022/11/06 05:41:11;;;;;;;13.60;3.40;;;;;;;5.67;nan;101007.59;2063989;28;20286;-71
2022/11/06 05:42:15;;;;;;;8.30;2.95;;;;;;;5.66;nan;101008.66;2078302;28;20284;-74
2022/11/06 05:43:19;;;;;;;6.32;2.97;;;;;;;5.66;nan;101003.31;2054359;28;20340;-71
2022/11/06 05:44:22;;;;;;;7.47;3.03;;;;;;;5.66;nan;101005.19;2048948;28;20381;-72
2022/11/06 05:45:28;;;;;;;12.15;3.75;;;;;;;5.66;nan;101013.97;2063817;28;20296;-71